Time;durP1;ratioP1;P1;durP2;ratioP2;P2;SDS_P1;SDS_P2;PMS_P1;PMS_P2;Temp;Humidity;BMP_temperature;BMP_pressure;BME280_temperature;BME280_humidity;BME280_pressure;Samples;Min_cycle;Max_cycle;Signal;HPM_P1;HPM_P2
2021/04/15 00:01:09;;;;;;;5.93;5.27;;;;;;;5.95;56.76;102905.22;6300945;28;20252;-54
2021/04/15 00:04:29;;;;;;;6.73;5.30;;;;;;;5.82;57.06;102916.72;6300009;28;20235;-50
2021/04/15 00:07:50;;;;;;;6.20;5.47;;;;;;;5.82;57.22;102908.09;6312090;28;20301;-51
2021/04/15 00:11:13;;;;;;;6.63;5.50;;;;;;;5.91;57.16;102908.47;6296169;28;20299;-52
2021/04/15 00:14:33;;;;;;;8.07;5.67;;;;;;;5.66;57.88;102912.59;6297780;28;20509;-51
2021/04/15 00:17:54;;;;;;;5.53;4.70;;;;;;;5.73;57.78;102903.41;6310568;28;20226;-51
2021/04/15 00:21:16;;;;;;;9.00;5.70;;;;;;;5.90;56.78;102901.56;6314115;28;20626;-51
2021/04/15 00:24:37;;;;;;;8.00;5.93;;;;;;;5.87;56.61;102914.34;6304325;28;20254;-54
2021/04/15 00:27:58;;;;;;;6.63;5.37;;;;;;;5.77;56.64;102914.75;6312523;28;20230;-52
2021/04/15 00:31:19;;;;;;;6.73;6.13;;;;;;;5.78;56.69;102906.16;6307036;28;20226;-53
2021/04/15 00:34:39;;;;;;;7.87;5.67;;;;;;;5.64;56.91;102911.63;6301996;28;20218;-54
2021/04/15 00:38:00;;;;;;;7.60;5.80;;;;;;;5.55;57.01;102903.47;6310451;28;20725;-51
2021/04/15 00:41:22;;;;;;;8.67;6.77;;;;;;;5.48;57.26;102904.00;6284040;28;20503;-52
2021/04/15 00:44:43;;;;;;;6.73;5.37;;;;;;;5.55;57.23;102900.88;6282181;28;20262;-49
2021/04/15 00:48:08;;;;;;;5.77;5.03;;;;;;;5.59;56.99;102897.63;6291931;28;20247;-52
2021/04/15 00:51:32;;;;;;;8.17;6.13;;;;;;;5.25;58.31;102901.28;6308249;28;20612;-50
2021/04/15 00:54:58;;;;;;;9.37;5.37;;;;;;;5.21;58.15;102909.66;6299037;28;20235;-52
2021/04/15 00:58:20;;;;;;;5.37;4.87;;;;;;;5.33;58.02;102917.09;6308664;28;20234;-47
2021/04/15 01:01:41;;;;;;;6.90;5.73;;;;;;;5.37;57.42;102912.94;6311147;28;20222;-54
2021/04/15 01:05:07;;;;;;;5.87;4.63;;;;;;;5.36;57.41;102906.03;6307024;28;20234;-52
2021/04/15 01:08:28;;;;;;;9.00;4.97;;;;;;;5.26;57.37;102913.34;6309396;28;20230;-53
2021/04/15 01:12:02;;;;;;;5.77;4.73;;;;;;;5.47;56.41;102910.88;6312611;28;20333;-52
2021/04/15 01:15:36;;;;;;;7.70;5.27;;;;;;;5.63;55.36;102906.41;6312301;28;20231;-54
2021/04/15 01:19:05;;;;;;;13.30;5.53;;;;;;;5.47;55.39;102904.81;6305252;28;20223;-52
2021/04/15 01:22:48;;;;;;;6.17;4.43;;;;;;;5.33;56.29;102910.25;6299390;28;20235;-50
2021/04/15 01:26:37;;;;;;;6.10;4.63;;;;;;;5.41;55.85;102914.84;6287458;28;20677;-52
2021/04/15 01:30:10;;;;;;;5.27;4.77;;;;;;;5.24;56.13;102907.22;6304024;28;20251;-55
2021/04/15 01:33:38;;;;;;;6.60;4.67;;;;;;;5.39;55.72;102901.91;6306047;28;20309;-52
2021/04/15 01:37:02;;;;;;;6.60;5.00;;;;;;;5.34;55.65;102913.72;6305727;28;20231;-52
2021/04/15 01:40:27;;;;;;;6.10;4.90;;;;;;;5.41;55.75;102914.84;6308090;28;20647;-55
2021/04/15 01:43:52;;;;;;;8.20;6.27;;;;;;;5.37;55.19;102903.53;6297196;28;20958;-52
2021/04/15 01:47:19;;;;;;;6.73;4.77;;;;;;;5.29;55.83;102910.94;6309405;28;20226;-50
2021/04/15 01:50:45;;;;;;;4.97;4.40;;;;;;;5.05;55.85;102909.78;6282858;28;20241;-51
2021/04/15 01:54:08;;;;;;;4.10;3.70;;;;;;;5.26;55.18;102910.78;6306886;28;20962;-51
2021/04/15 01:57:34;;;;;;;6.53;4.77;;;;;;;5.27;55.52;102911.66;6308107;28;20655;-54
2021/04/15 02:00:59;;;;;;;5.50;4.80;;;;;;;4.96;56.61;102909.34;6299695;28;20718;-51
2021/04/15 02:04:24;;;;;;;5.03;4.20;;;;;;;5.10;55.38;102918.63;6303996;28;20227;-54
2021/04/15 02:07:49;;;;;;;8.63;5.77;;;;;;;5.02;55.57;102919.94;6310262;28;20627;-52
2021/04/15 02:11:17;;;;;;;3.57;3.27;;;;;;;5.12;55.19;102917.00;6302397;28;20256;-54
2021/04/15 02:14:42;;;;;;;6.43;4.63;;;;;;;5.15;55.11;102927.47;6296087;28;20223;-49
2021/04/15 02:18:06;;;;;;;9.27;5.90;;;;;;;5.23;54.45;102920.06;6297210;28;20226;-51
2021/04/15 02:21:33;;;;;;;6.90;6.20;;;;;;;5.10;54.72;102918.63;6302934;28;20250;-54
2021/04/15 02:25:02;;;;;;;7.43;5.10;;;;;;;5.01;54.69;102920.78;6293846;28;20263;-52
2021/04/15 02:28:29;;;;;;;6.37;3.97;;;;;;;4.85;55.87;102921.75;6307244;28;20238;-54
2021/04/15 02:31:53;;;;;;;5.50;4.90;;;;;;;4.82;55.50;102927.63;6311612;28;20223;-53
2021/04/15 02:35:21;;;;;;;6.83;5.20;;;;;;;4.97;54.70;102918.88;6284907;28;20236;-55
2021/04/15 02:38:50;;;;;;;4.57;4.17;;;;;;;5.04;55.15;102918.31;6285583;28;20230;-54
2021/04/15 02:42:18;;;;;;;5.47;4.70;;;;;;;4.87;55.03;102925.28;6307978;28;20261;-54
2021/04/15 02:45:43;;;;;;;6.10;4.47;;;;;;;5.08;54.52;102925.44;6286280;28;20222;-55
2021/04/15 02:49:07;;;;;;;9.33;5.60;;;;;;;4.99;54.47;102922.41;6303188;28;20231;-55
2021/04/15 02:52:33;;;;;;;6.50;5.63;;;;;;;4.88;55.01;102924.47;6294582;28;20508;-54
2021/04/15 02:55:59;;;;;;;8.67;5.87;;;;;;;4.92;55.01;102923.78;6304889;28;20219;-48
2021/04/15 02:59:25;;;;;;;7.87;5.87;;;;;;;4.88;54.41;102927.91;6300180;28;21040;-52
2021/04/15 03:02:49;;;;;;;5.50;4.70;;;;;;;4.77;54.74;102926.53;6306558;28;20226;-47
2021/04/15 03:06:13;;;;;;;5.63;5.13;;;;;;;4.63;56.37;102935.28;6301873;28;20234;-50
2021/04/15 03:09:36;;;;;;;21.60;18.63;;;;;;;4.63;57.56;102931.00;6309845;28;20234;-53
2021/04/15 03:13:05;;;;;;;27.93;25.07;;;;;;;4.52;56.76;102942.50;6295825;28;20529;-51
2021/04/15 03:16:28;;;;;;;13.03;10.87;;;;;;;4.51;56.66;102931.28;6288942;28;20321;-48
2021/04/15 03:19:52;;;;;;;8.50;5.83;;;;;;;4.60;56.21;102933.44;6299353;28;20226;-51
2021/04/15 03:23:21;;;;;;;9.27;7.60;;;;;;;4.55;56.42;102932.31;6307744;28;20261;-51
2021/04/15 03:26:48;;;;;;;6.13;5.33;;;;;;;4.55;55.54;102937.50;6285120;28;20225;-50
2021/04/15 03:30:12;;;;;;;5.63;5.10;;;;;;;4.45;55.29;102936.16;6307269;28;20234;-53
2021/04/15 03:33:40;;;;;;;5.70;4.73;;;;;;;4.53;56.14;102939.97;6301928;28;20234;-49
2021/04/15 03:37:02;;;;;;;5.10;4.47;;;;;;;4.63;55.40;102935.28;6301253;28;20226;-49
2021/04/15 03:40:24;;;;;;;8.23;5.60;;;;;;;4.56;56.46;102933.25;6300118;28;20227;-48
2021/04/15 03:43:50;;;;;;;6.10;4.67;;;;;;;4.53;56.45;102934.81;6311696;28;20588;-47
2021/04/15 03:47:16;;;;;;;6.50;5.20;;;;;;;4.60;55.55;102930.88;6296353;28;20530;-48
2021/04/15 03:50:49;;;;;;;5.93;4.73;;;;;;;4.58;55.48;102941.94;6297894;28;20313;-50
2021/04/15 03:54:13;;;;;;;4.57;4.17;;;;;;;4.37;56.81;102936.59;6311912;28;20225;-53
2021/04/15 03:57:35;;;;;;;5.83;5.10;;;;;;;4.58;55.52;102936.78;6299250;28;20262;-49
2021/04/15 04:01:02;;;;;;;6.20;4.97;;;;;;;4.45;56.08;102941.31;6303766;28;20234;-52
2021/04/15 04:04:32;;;;;;;5.03;4.57;;;;;;;4.58;55.89;102936.78;6288972;28;20238;-53
2021/04/15 04:07:56;;;;;;;8.03;5.70;;;;;;;4.43;55.38;102939.47;6301796;28;20278;-52
2021/04/15 04:11:20;;;;;;;7.90;4.70;;;;;;;4.35;56.24;102944.25;6297334;28;20314;-52
2021/04/15 04:14:44;;;;;;;5.10;4.60;;;;;;;4.33;56.09;102940.69;6289847;28;20227;-51
2021/04/15 04:18:10;;;;;;;7.60;5.20;;;;;;;4.52;55.92;102945.09;6286474;28;20230;-50
2021/04/15 04:21:48;;;;;;;7.67;6.87;;;;;;;4.56;55.38;102944.44;6302759;28;20222;-54
2021/04/15 04:25:17;;;;;;;7.60;6.50;;;;;;;4.40;56.33;102947.94;6291825;28;20298;-54
2021/04/15 04:28:42;;;;;;;8.33;5.97;;;;;;;4.57;55.55;102960.78;6298236;28;20222;-50
2021/04/15 04:32:07;;;;;;;11.47;8.23;;;;;;;4.46;55.61;102947.34;6304312;28;20234;-50
2021/04/15 04:35:31;;;;;;;6.10;5.50;;;;;;;4.47;55.73;102955.16;6291661;28;20222;-50
2021/04/15 04:38:54;;;;;;;10.03;7.23;;;;;;;4.41;56.50;102961.72;6303006;28;20227;-51
2021/04/15 04:42:22;;;;;;;7.50;6.77;;;;;;;4.67;55.84;102963.94;6296764;28;20232;-54
2021/04/15 04:45:43;;;;;;;8.83;6.03;;;;;;;4.51;55.38;102962.25;6297522;28;20226;-52
2021/04/15 04:49:07;;;;;;;6.90;6.20;;;;;;;4.54;55.92;102965.00;6294093;28;20548;-49
2021/04/15 04:52:31;;;;;;;10.57;7.00;;;;;;;4.59;56.20;102970.38;6306985;28;20226;-52
2021/04/15 04:56:14;;;;;;;8.63;6.93;;;;;;;4.74;55.76;102976.31;6305134;28;20305;-52
2021/04/15 04:59:37;;;;;;;6.10;5.50;;;;;;;4.82;55.46;102980.97;6301821;28;20231;-52
2021/04/15 05:02:58;;;;;;;8.40;6.47;;;;;;;4.79;55.49;102979.13;6286756;28;20235;-49
2021/04/15 05:06:22;;;;;;;6.93;6.00;;;;;;;4.71;55.84;102980.41;6303027;28;20234;-51
2021/04/15 05:09:44;;;;;;;8.27;5.53;;;;;;;4.74;56.07;102985.75;6292307;28;20608;-50
2021/04/15 05:13:13;;;;;;;7.60;6.20;;;;;;;4.76;55.99;102989.28;6300949;28;20298;-49
2021/04/15 05:16:39;;;;;;;8.37;5.90;;;;;;;5.01;55.45;102990.50;6301556;28;20222;-54
2021/04/15 05:20:01;;;;;;;9.40;7.60;;;;;;;4.97;55.09;102997.22;6305690;28;20227;-51
2021/04/15 05:23:26;;;;;;;8.07;6.80;;;;;;;5.03;55.38;103005.25;6307944;28;20618;-51
2021/04/15 05:26:47;;;;;;;10.00;6.63;;;;;;;5.02;55.17;103010.34;6299935;28;20231;-53
2021/04/15 05:30:21;;;;;;;9.03;7.23;;;;;;;5.06;55.54;103008.00;6296683;28;20607;-53
2021/04/15 05:33:41;;;;;;;9.60;7.73;;;;;;;5.08;55.41;103013.25;6285105;28;20226;-53
2021/04/15 05:37:06;;;;;;;8.57;7.67;;;;;;;5.25;55.20;103014.94;6298009;28;20235;-54
2021/04/15 05:40:27;;;;;;;10.47;9.37;;;;;;;5.10;55.92;103009.03;6298279;28;20595;-52
2021/04/15 05:43:50;;;;;;;8.63;7.83;;;;;;;5.28;56.49;103016.78;6300193;28;20227;-48
2021/04/15 05:47:15;;;;;;;8.77;7.97;;;;;;;5.48;55.59;103012.53;6298694;28;20222;-50
2021/04/15 05:50:38;;;;;;;7.93;7.13;;;;;;;5.51;55.17;103010.13;6309474;28;20222;-50
2021/04/15 05:54:06;;;;;;;8.07;7.23;;;;;;;5.52;55.67;103014.44;6306472;28;20238;-55
2021/04/15 05:57:31;;;;;;;8.60;7.70;;;;;;;5.92;54.53;103018.88;6289774;28;20243;-51
2021/04/15 06:00:57;;;;;;;10.07;7.90;;;;;;;6.14;53.88;103013.00;6305324;28;20223;-52
2021/04/15 06:04:25;;;;;;;9.70;7.53;;;;;;;6.00;54.31;103020.13;6303334;28;20258;-54
2021/04/15 06:07:48;;;;;;;9.30;7.67;;;;;;;6.21;53.71;103011.56;6303566;28;20215;-55
2021/04/15 06:11:31;;;;;;;7.63;6.93;;;;;;;6.09;54.01;103017.97;6301752;28;20234;-53
2021/04/15 06:14:57;;;;;;;8.50;7.63;;;;;;;6.09;54.24;103023.16;6305185;28;20688;-51
2021/04/15 06:18:24;;;;;;;8.57;7.77;;;;;;;6.45;53.04;103025.56;6307196;28;20309;-56
2021/04/15 06:21:49;;;;;;;8.00;7.17;;;;;;;6.56;52.99;103028.63;6295932;28;20234;-51
2021/04/15 06:25:15;;;;;;;10.77;8.67;;;;;;;6.52;53.37;103029.31;6304945;28;20254;-51
2021/04/15 06:28:40;;;;;;;13.23;7.83;;;;;;;6.61;53.14;103034.91;6293055;28;20219;-54
2021/04/15 06:32:03;;;;;;;8.33;6.87;;;;;;;6.83;52.71;103034.09;6301916;28;20242;-51
2021/04/15 06:35:26;;;;;;;7.73;7.07;;;;;;;6.90;52.34;103033.53;6286982;28;20313;-56
2021/04/15 06:38:57;;;;;;;7.23;6.53;;;;;;;7.03;52.51;103034.03;6295556;28;20227;-55
2021/04/15 06:42:45;;;;;;;12.47;8.37;;;;;;;7.15;52.71;103034.50;6290643;28;20230;-54
2021/04/15 06:46:18;;;;;;;8.03;6.43;;;;;;;7.24;52.88;103032.31;6294371;28;20242;-51
2021/04/15 06:50:12;;;;;;;7.40;6.10;;;;;;;7.23;53.81;103038.31;6297846;28;20234;-53
2021/04/15 06:53:41;;;;;;;5.57;5.07;;;;;;;7.62;53.18;103042.44;6296905;28;20239;-52
2021/04/15 06:57:22;;;;;;;7.20;5.30;;;;;;;7.59;53.51;103032.81;6294182;28;20237;-56
2021/04/15 07:00:58;;;;;;;7.30;6.00;;;;;;;7.74;53.70;103036.81;6298437;28;20223;-52
2021/04/15 07:04:21;;;;;;;6.00;5.37;;;;;;;7.76;54.00;103035.19;6294400;28;20423;-56
2021/04/15 07:07:49;;;;;;;7.00;5.90;;;;;;;8.00;53.59;103036.06;6296147;28;20234;-54
2021/04/15 07:11:24;;;;;;;5.20;4.77;;;;;;;8.26;52.71;103030.97;6291783;28;20221;-53
2021/04/15 07:15:00;;;;;;;4.97;4.47;;;;;;;8.34;52.95;103032.13;6284116;28;20238;-52
2021/04/15 07:18:51;;;;;;;6.30;4.20;;;;;;;8.48;53.00;103028.31;6299449;28;20334;-54
2021/04/15 07:22:47;;;;;;;7.10;4.10;;;;;;;8.57;52.95;103021.66;6293902;28;20223;-51
2021/04/15 07:26:36;;;;;;;5.70;4.43;;;;;;;8.73;53.03;103029.16;6303632;28;20615;-55
2021/04/15 07:30:21;;;;;;;5.53;4.07;;;;;;;8.79;53.07;103026.78;6298011;28;20238;-58
2021/04/15 07:34:06;;;;;;;4.60;4.00;;;;;;;8.87;53.03;103032.22;6294015;28;20231;-59
2021/04/15 07:37:41;;;;;;;5.97;4.50;;;;;;;9.06;52.87;103033.72;6297615;28;20279;-55
2021/04/15 07:41:45;;;;;;;4.60;3.70;;;;;;;9.33;54.74;103033.72;6293780;28;20238;-54
2021/04/15 07:45:12;;;;;;;5.63;4.13;;;;;;;9.64;52.67;103038.13;6297298;28;20233;-53
2021/04/15 07:49:11;;;;;;;5.10;4.07;;;;;;;9.98;50.99;103036.56;6301476;28;20222;-55
2021/04/15 07:53:03;;;;;;;5.07;4.57;;;;;;;9.98;49.62;103036.56;6227856;28;20247;-54
2021/04/15 07:56:55;;;;;;;7.03;4.07;;;;;;;9.84;49.42;103036.13;6300819;28;20242;-56
2021/04/15 08:00:51;;;;;;;5.90;5.40;;;;;;;10.27;47.70;103031.25;6298604;28;20229;-56
2021/04/15 08:04:49;;;;;;;4.70;3.50;;;;;;;10.17;48.03;103034.44;6291823;28;20229;-50
2021/04/15 08:08:41;;;;;;;5.47;3.13;;;;;;;10.14;46.65;103034.34;6294427;28;20313;-52
2021/04/15 08:12:22;;;;;;;6.67;3.77;;;;;;;10.54;45.31;103032.88;6299920;28;20223;-51
2021/04/15 08:15:59;;;;;;;5.90;3.80;;;;;;;10.50;44.50;103038.84;6300132;28;20627;-55
2021/04/15 08:19:37;;;;;;;3.33;3.00;;;;;;;10.55;44.47;103039.88;6298410;28;20647;-53
2021/04/15 08:23:30;;;;;;;4.00;2.73;;;;;;;10.48;42.67;103027.50;6302606;28;20234;-55
2021/04/15 08:27:25;;;;;;;6.80;4.33;;;;;;;10.78;42.99;103030.91;6271711;28;20547;-55
2021/04/15 08:31:05;;;;;;;4.17;3.03;;;;;;;11.03;41.88;103021.97;6293249;28;20944;-56
2021/04/15 08:34:38;;;;;;;2.50;2.30;;;;;;;10.71;40.69;103026.38;6300054;28;20515;-54
2021/04/15 08:38:11;;;;;;;4.93;1.70;;;;;;;10.84;39.55;103024.97;6306787;28;20305;-55
2021/04/15 08:41:43;;;;;;;2.50;2.00;;;;;;;11.38;39.31;103023.63;6302291;28;20227;-50
2021/04/15 08:45:28;;;;;;;4.87;2.67;;;;;;;11.50;38.45;103031.75;6301302;28;20231;-54
2021/04/15 08:49:03;;;;;;;2.20;1.97;;;;;;;11.29;37.92;103021.72;6291387;28;20214;-55
2021/04/15 08:52:44;;;;;;;5.20;2.30;;;;;;;11.03;38.03;103023.69;6302180;28;20497;-52
2021/04/15 08:56:09;;;;;;;2.37;1.80;;;;;;;11.49;37.92;103016.94;6300940;28;20241;-54
2021/04/15 08:59:41;;;;;;;2.27;2.07;;;;;;;11.17;36.83;103016.22;6306169;28;20234;-53
2021/04/15 09:03:18;;;;;;;2.07;1.87;;;;;;;11.36;35.78;103014.88;6301901;28;20318;-53
2021/04/15 09:06:45;;;;;;;1.50;1.40;;;;;;;11.96;42.05;103014.50;6299733;28;20234;-54
2021/04/15 09:10:18;;;;;;;2.40;1.93;;;;;;;12.31;37.19;103014.31;6304215;28;20234;-52
2021/04/15 09:13:48;;;;;;;1.63;1.53;;;;;;;12.17;33.57;103013.13;6303062;28;20238;-53
2021/04/15 09:17:12;;;;;;;1.77;1.33;;;;;;;11.87;32.88;103016.88;6295520;28;20234;-54
2021/04/15 09:20:37;;;;;;;2.57;1.20;;;;;;;11.73;29.17;103006.16;6307158;28;20227;-56
2021/04/15 09:24:13;;;;;;;1.53;1.30;;;;;;;12.28;28.51;103010.75;6302335;28;20254;-55
2021/04/15 09:27:50;;;;;;;1.13;1.07;;;;;;;12.02;28.59;103006.78;6297762;28;20227;-54
2021/04/15 09:31:16;;;;;;;0.80;0.80;;;;;;;11.93;29.32;102996.16;6300210;28;20576;-53
2021/04/15 09:35:04;;;;;;;1.47;1.40;;;;;;;11.95;29.53;102993.56;6309049;28;20234;-50
2021/04/15 09:38:52;;;;;;;1.80;1.10;;;;;;;12.07;29.19;102992.94;6297718;28;20231;-51
2021/04/15 09:42:33;;;;;;;0.87;0.70;;;;;;;12.66;29.24;102987.91;6293472;28;20227;-52
2021/04/15 09:46:06;;;;;;;0.87;0.87;;;;;;;13.06;28.85;102985.03;6292575;28;20325;-54
2021/04/15 09:49:42;;;;;;;1.07;0.70;;;;;;;13.35;28.16;102989.00;6302160;28;20230;-53
2021/04/15 09:53:13;;;;;;;1.53;1.00;;;;;;;13.54;27.13;102989.25;6299436;28;20219;-50
2021/04/15 09:56:53;;;;;;;5.30;0.93;;;;;;;12.72;28.33;102982.78;6302797;28;21181;-55
2021/04/15 10:00:28;;;;;;;2.30;0.80;;;;;;;12.64;28.63;102979.16;6299825;28;20233;-52
2021/04/15 10:03:58;;;;;;;0.73;0.73;;;;;;;12.37;28.76;102984.81;6298246;28;20230;-55
2021/04/15 10:07:25;;;;;;;3.97;1.00;;;;;;;12.54;28.20;102982.47;6297795;28;21002;-54
2021/04/15 10:10:57;;;;;;;0.80;0.73;;;;;;;12.63;28.56;102981.75;6298406;28;20223;-54
2021/04/15 10:14:31;;;;;;;0.90;0.67;;;;;;;12.61;29.19;102986.94;6302853;28;20320;-54
2021/04/15 10:18:05;;;;;;;1.73;0.77;;;;;;;12.24;29.30;102988.03;6298620;28;20585;-54
2021/04/15 10:21:50;;;;;;;1.80;0.87;;;;;;;12.19;29.70;102975.78;6294279;28;20230;-55
2021/04/15 10:25:15;;;;;;;0.90;0.77;;;;;;;12.55;29.55;102973.78;6294619;28;20623;-53
2021/04/15 10:29:07;;;;;;;1.00;0.70;;;;;;;12.26;29.82;102987.19;6302984;28;20634;-55
2021/04/15 10:32:42;;;;;;;1.07;0.80;;;;;;;11.74;31.44;102973.09;6292762;28;20321;-55
2021/04/15 10:36:40;;;;;;;2.00;1.03;;;;;;;11.92;31.34;102978.75;6287815;28;20226;-51
2021/04/15 10:40:30;;;;;;;1.17;1.00;;;;;;;11.51;31.63;102972.59;6286592;28;20604;-54
2021/04/15 10:44:27;;;;;;;4.77;1.23;;;;;;;11.68;37.60;102975.59;6295073;28;20226;-57
2021/04/15 10:48:10;;;;;;;0.97;0.97;;;;;;;12.02;33.97;102970.22;6298608;28;20241;-59
2021/04/15 10:51:39;;;;;;;1.30;1.20;;;;;;;12.22;31.31;102964.50;6298374;28;20231;-53
2021/04/15 10:55:22;;;;;;;2.63;0.90;;;;;;;12.08;29.95;102960.72;6304636;28;20218;-52
2021/04/15 10:58:49;;;;;;;0.97;0.87;;;;;;;12.31;29.60;102958.53;6299835;28;20226;-53
2021/04/15 11:02:26;;;;;;;1.33;1.00;;;;;;;12.25;29.53;102964.53;6302541;28;20657;-52
2021/04/15 11:05:52;;;;;;;1.23;1.10;;;;;;;12.57;29.01;102956.38;6304066;28;20234;-50
2021/04/15 11:09:34;;;;;;;2.03;0.73;;;;;;;12.91;28.85;102954.31;6299051;28;20228;-49
2021/04/15 11:13:05;;;;;;;1.03;0.90;;;;;;;12.65;28.59;102967.84;6296141;28;20284;-56
2021/04/15 11:16:34;;;;;;;2.37;0.80;;;;;;;12.57;27.55;102961.63;6304014;28;20253;-53
2021/04/15 11:20:10;;;;;;;0.73;0.67;;;;;;;12.22;26.88;102951.44;6288051;28;20223;-56
2021/04/15 11:23:32;;;;;;;0.93;0.80;;;;;;;12.12;27.77;102960.81;6298782;28;20226;-53
2021/04/15 11:26:56;;;;;;;1.43;1.13;;;;;;;11.64;29.13;102961.59;6279773;28;20259;-54
2021/04/15 11:30:34;;;;;;;1.60;0.80;;;;;;;12.05;29.29;102960.69;6282964;28;20519;-53
2021/04/15 11:34:09;;;;;;;2.10;1.20;;;;;;;12.33;29.33;102957.72;6278572;28;20924;-54
2021/04/15 11:37:30;;;;;;;1.57;1.47;;;;;;;12.25;28.65;102948.84;6279491;28;20239;-53
2021/04/15 11:40:53;;;;;;;2.03;0.80;;;;;;;13.06;27.14;102946.69;6282139;28;20250;-55
2021/04/15 11:44:25;;;;;;;1.30;0.60;;;;;;;13.81;24.26;102938.09;6283989;28;20254;-52
2021/04/15 11:47:46;;;;;;;1.97;0.97;;;;;;;14.16;23.78;102941.06;6277908;28;20254;-51
2021/04/15 11:51:14;;;;;;;1.10;0.70;;;;;;;15.23;33.73;102950.66;6276240;28;20235;-51
2021/04/15 11:54:37;;;;;;;0.50;0.50;;;;;;;15.30;38.38;102948.06;6279598;28;20223;-49
2021/04/15 11:58:00;;;;;;;1.20;1.10;;;;;;;14.49;27.63;102942.25;6281133;28;20222;-50
2021/04/15 12:01:27;;;;;;;0.67;0.67;;;;;;;13.43;26.00;102936.75;6287617;28;20254;-49
2021/04/15 12:04:47;;;;;;;1.40;1.27;;;;;;;13.16;26.27;102943.38;6286481;28;20238;-53
2021/04/15 12:08:13;;;;;;;1.30;1.20;;;;;;;13.17;25.70;102945.09;6284985;28;20219;-55
2021/04/15 12:11:37;;;;;;;1.40;0.90;;;;;;;12.85;23.95;102942.00;6282385;28;20225;-57
2021/04/15 12:14:59;;;;;;;1.63;0.80;;;;;;;12.71;24.38;102935.69;6279258;28;20587;-53
2021/04/15 12:18:26;;;;;;;0.97;0.90;;;;;;;12.93;25.54;102942.13;6266977;28;551284;-55
2021/04/15 12:21:53;;;;;;;1.30;1.17;;;;;;;14.25;25.31;102933.31;6279810;28;20252;-52
2021/04/15 12:25:19;;;;;;;1.00;1.00;;;;;;;17.85;21.02;102926.13;6282285;28;20243;-52
2021/04/15 12:28:45;;;;;;;1.53;1.07;;;;;;;17.65;21.10;102920.06;6280057;28;20226;-54
2021/04/15 12:32:15;;;;;;;3.13;1.30;;;;;;;20.63;17.94;102916.75;6289444;28;22407;-54
2021/04/15 12:35:43;;;;;;;3.37;1.10;;;;;;;17.80;19.95;102916.50;6295636;28;20227;-53
2021/04/15 12:39:09;;;;;;;1.90;0.90;;;;;;;15.35;22.57;102920.13;6271418;28;20339;-52
2021/04/15 12:42:33;;;;;;;1.97;0.80;;;;;;;14.90;22.64;102932.09;6271982;28;20242;-55
2021/04/15 12:45:58;;;;;;;0.90;0.80;;;;;;;14.54;22.52;102923.06;6289426;28;20230;-56
2021/04/15 12:49:24;;;;;;;0.63;0.63;;;;;;;14.06;22.56;102918.28;6280624;28;20234;-55
2021/04/15 12:52:44;;;;;;;0.97;0.87;;;;;;;14.33;23.03;102925.53;6283392;28;20226;-54
2021/04/15 12:56:06;;;;;;;1.67;0.70;;;;;;;14.63;22.33;102922.28;6287447;28;20531;-54
2021/04/15 12:59:30;;;;;;;1.10;0.90;;;;;;;15.27;22.94;102920.94;6285860;28;20235;-53
2021/04/15 13:02:51;;;;;;;0.70;0.70;;;;;;;14.59;22.73;102919.63;6291144;28;20317;-54
2021/04/15 13:06:15;;;;;;;1.60;0.90;;;;;;;14.65;23.46;102911.81;6282269;28;20227;-56
2021/04/15 13:09:38;;;;;;;0.77;0.63;;;;;;;15.25;21.58;102909.56;6283426;28;21140;-57
2021/04/15 13:12:59;;;;;;;1.73;1.63;;;;;;;16.49;19.16;102908.97;6277426;28;20226;-53
2021/04/15 13:16:41;;;;;;;1.43;1.10;;;;;;;15.92;18.84;102904.56;6287074;28;20290;-57
2021/04/15 13:20:05;;;;;;;0.73;0.73;;;;;;;15.50;20.25;102903.53;6284112;28;20233;-52
2021/04/15 13:23:37;;;;;;;1.27;1.17;;;;;;;15.52;21.51;102904.41;6272242;28;20226;-56
2021/04/15 13:27:39;;;;;;;1.40;0.83;;;;;;;15.53;21.37;102903.53;6279700;28;20324;-53
2021/04/15 13:31:03;;;;;;;1.00;0.80;;;;;;;16.32;22.29;102899.34;6282197;28;20237;-53
2021/04/15 13:34:26;;;;;;;1.87;1.33;;;;;;;16.79;22.35;102900.16;6281964;28;20619;-56
2021/04/15 13:37:46;;;;;;;2.93;1.73;;;;;;;15.24;24.73;102902.56;6277778;28;20226;-55
2021/04/15 13:41:09;;;;;;;3.13;1.57;;;;;;;14.21;30.27;102910.56;6284701;28;21090;-53
2021/04/15 13:45:00;;;;;;;2.10;1.27;;;;;;;14.06;28.79;102903.44;6277762;28;20238;-51
2021/04/15 13:48:44;;;;;;;2.00;0.90;;;;;;;13.40;31.01;102894.84;6287143;28;20222;-53
2021/04/15 13:52:12;;;;;;;1.27;1.10;;;;;;;13.14;28.52;102889.25;6285834;28;20227;-52
2021/04/15 13:55:46;;;;;;;1.70;1.60;;;;;;;12.95;28.52;102898.56;6272280;28;20237;-51
2021/04/15 13:59:41;;;;;;;2.23;0.90;;;;;;;12.64;26.46;102892.91;6284146;28;20230;-52
2021/04/15 14:03:02;;;;;;;1.10;1.00;;;;;;;13.95;23.55;102887.59;6302961;28;20226;-52
2021/04/15 14:06:26;;;;;;;1.00;0.85;;;;;;;14.30;22.55;102892.28;6296754;28;20751;-55
2021/04/15 14:09:47;;;;;;;2.10;1.17;;;;;;;15.05;20.70;102891.09;6294667;28;20245;-54
2021/04/15 14:13:15;;;;;;;2.97;1.67;;;;;;;15.54;21.92;102879.03;6312037;28;20227;-51
2021/04/15 14:16:38;;;;;;;2.43;1.23;;;;;;;15.12;23.66;102872.75;6301839;28;20230;-51
2021/04/15 14:20:09;;;;;;;3.33;1.77;;;;;;;15.68;23.06;102870.31;6307883;28;20215;-54
2021/04/15 14:23:32;;;;;;;2.43;1.47;;;;;;;16.20;22.25;102865.16;6302746;28;20223;-53
2021/04/15 14:26:58;;;;;;;2.17;1.23;;;;;;;16.27;22.88;102872.16;6309194;28;20479;-51
2021/04/15 14:30:22;;;;;;;1.30;1.20;;;;;;;16.61;22.29;102869.47;6307781;28;20218;-52
2021/04/15 14:33:44;;;;;;;1.17;1.07;;;;;;;15.52;21.36;102867.63;6309447;28;20226;-49
2021/04/15 14:37:06;;;;;;;1.03;0.93;;;;;;;14.71;21.80;102876.03;6306224;28;20226;-52
2021/04/15 14:40:34;;;;;;;2.70;1.53;;;;;;;14.93;22.75;102870.91;6313107;28;20218;-50
2021/04/15 14:43:55;;;;;;;2.00;1.47;;;;;;;14.48;24.65;102874.94;6315411;28;20219;-51
2021/04/15 14:47:30;;;;;;;1.37;1.27;;;;;;;14.88;25.21;102862.13;6309088;28;20230;-52
2021/04/15 14:51:02;;;;;;;1.23;1.13;;;;;;;15.89;26.19;102869.50;6310229;28;20234;-55
2021/04/15 14:54:26;;;;;;;1.27;1.13;;;;;;;15.25;23.35;102868.41;6309154;28;20226;-53
2021/04/15 14:57:54;;;;;;;1.20;1.10;;;;;;;15.51;24.74;102871.16;6297711;28;20235;-54
2021/04/15 15:01:27;;;;;;;1.80;1.53;;;;;;;15.64;25.25;102865.91;6315709;28;20226;-53
2021/04/15 15:04:54;;;;;;;4.87;2.00;;;;;;;15.80;25.04;102866.84;6307781;28;20309;-57
2021/04/15 15:08:19;;;;;;;2.03;1.27;;;;;;;15.27;26.36;102874.56;6313723;28;20231;-55
2021/04/15 15:11:39;;;;;;;2.00;1.33;;;;;;;14.73;26.13;102866.44;6318958;28;20227;-54
2021/04/15 15:15:01;;;;;;;2.97;2.57;;;;;;;15.04;27.51;102865.69;6298557;28;20223;-56
2021/04/15 15:18:23;;;;;;;2.43;1.70;;;;;;;14.61;27.56;102860.22;6313658;28;20241;-53
2021/04/15 15:21:47;;;;;;;1.50;1.40;;;;;;;14.84;28.04;102870.84;6310164;28;20226;-53
2021/04/15 15:25:25;;;;;;;2.77;1.53;;;;;;;14.68;27.97;102862.03;6313041;28;20226;-56
2021/04/15 15:29:06;;;;;;;1.93;1.63;;;;;;;14.98;28.07;102856.06;6303962;28;20230;-56
2021/04/15 15:32:30;;;;;;;1.20;1.10;;;;;;;14.35;26.16;102853.88;6304229;28;20234;-56
2021/04/15 15:35:52;;;;;;;1.77;1.67;;;;;;;15.36;25.44;102843.09;6292430;28;20623;-55
2021/04/15 15:39:29;;;;;;;1.73;0.90;;;;;;;15.65;33.07;102846.69;6304804;28;20234;-53
2021/04/15 15:43:09;;;;;;;1.27;1.13;;;;;;;16.49;30.50;102845.84;6299530;28;20694;-56
2021/04/15 15:46:39;;;;;;;1.20;0.97;;;;;;;15.70;27.39;102837.03;6298074;28;20242;-53
2021/04/15 15:50:12;;;;;;;3.73;1.23;;;;;;;16.11;27.75;102844.09;6306195;28;20230;-55
2021/04/15 15:53:40;;;;;;;1.07;0.93;;;;;;;16.22;27.57;102839.72;6306194;28;20230;-56
2021/04/15 15:57:03;;;;;;;1.70;1.37;;;;;;;16.10;25.47;102834.50;6300845;28;21091;-55
2021/04/15 16:00:26;;;;;;;5.17;2.40;;;;;;;15.85;27.06;102841.47;6300849;28;20263;-57
2021/04/15 16:03:48;;;;;;;8.20;3.43;;;;;;;16.06;28.89;102836.25;6297048;28;20519;-53
2021/04/15 16:07:11;;;;;;;5.10;2.33;;;;;;;15.78;22.78;102845.88;6299297;28;20226;-50
2021/04/15 16:10:35;;;;;;;0.90;0.90;;;;;;;15.11;22.60;102842.13;6312452;28;22479;-51
2021/04/15 16:13:56;;;;;;;2.77;0.90;;;;;;;15.16;23.15;102843.03;6304697;28;20230;-51
2021/04/15 16:17:17;;;;;;;1.40;0.93;;;;;;;15.11;22.98;102842.13;6293173;28;20218;-53
2021/04/15 16:20:41;;;;;;;1.10;1.00;;;;;;;14.62;23.11;102844.50;6296873;28;20243;-56